sensor_id;sensor_type;location;lat;lon;timestamp;pressure;altitude;pressure_sealevel;temperature;humidity
78845;BME280;68195;50.854;2.860;2023-07-31T00:01:20;101109.31;;;16.60;100.00
78845;BME280;68195;50.854;2.860;2023-07-31T00:03:49;101073.06;;;16.51;100.00
78845;BME280;68195;50.854;2.860;2023-07-31T00:06:16;101035.19;;;16.26;100.00
78845;BME280;68195;50.854;2.860;2023-07-31T00:08:47;101081.81;;;16.51;100.00
78845;BME280;68195;50.854;2.860;2023-07-31T00:11:14;101048.09;;;16.44;100.00
78845;BME280;68195;50.854;2.860;2023-07-31T00:13:42;101146.47;;;16.95;100.00
78845;BME280;68195;50.854;2.860;2023-07-31T00:16:10;101072.09;;;16.52;100.00
78845;BME280;68195;50.854;2.860;2023-07-31T00:18:38;101092.34;;;16.64;100.00
78845;BME280;68195;50.854;2.860;2023-07-31T00:21:03;101090.97;;;16.58;100.00
78845;BME280;68195;50.854;2.860;2023-07-31T00:23:33;101007.59;;;16.19;100.00
78845;BME280;68195;50.854;2.860;2023-07-31T00:25:59;100976.00;;;15.93;100.00
78845;BME280;68195;50.854;2.860;2023-07-31T00:28:26;101099.09;;;16.68;100.00
78845;BME280;68195;50.854;2.860;2023-07-31T00:30:56;101108.38;;;16.74;100.00
78845;BME280;68195;50.854;2.860;2023-07-31T00:33:23;101115.56;;;16.72;100.00
78845;BME280;68195;50.854;2.860;2023-07-31T00:35:49;101030.16;;;16.23;100.00
78845;BME280;68195;50.854;2.860;2023-07-31T00:38:16;100999.69;;;16.06;100.00
78845;BME280;68195;50.854;2.860;2023-07-31T00:40:45;101053.13;;;16.47;100.00
78845;BME280;68195;50.854;2.860;2023-07-31T00:43:13;101134.72;;;16.99;100.00
78845;BME280;68195;50.854;2.860;2023-07-31T00:45:42;101048.19;;;16.42;100.00
78845;BME280;68195;50.854;2.860;2023-07-31T00:48:10;101125.13;;;16.98;100.00
78845;BME280;68195;50.854;2.860;2023-07-31T00:50:39;101117.13;;;17.00;100.00
78845;BME280;68195;50.854;2.860;2023-07-31T00:53:07;101101.19;;;16.89;100.00
78845;BME280;68195;50.854;2.860;2023-07-31T00:55:35;101065.44;;;16.72;100.00
78845;BME280;68195;50.854;2.860;2023-07-31T00:58:01;101055.00;;;16.57;100.00
78845;BME280;68195;50.854;2.860;2023-07-31T01:00:26;101084.84;;;16.84;100.00
78845;BME280;68195;50.854;2.860;2023-07-31T01:02:52;101030.34;;;16.46;100.00
78845;BME280;68195;50.854;2.860;2023-07-31T01:05:25;100992.41;;;16.35;100.00
78845;BME280;68195;50.854;2.860;2023-07-31T01:08:08;101078.16;;;16.78;100.00
78845;BME280;68195;50.854;2.860;2023-07-31T01:11:00;101022.09;;;16.63;100.00
78845;BME280;68195;50.854;2.860;2023-07-31T01:13:28;101087.91;;;16.90;100.00
78845;BME280;68195;50.854;2.860;2023-07-31T01:15:56;101030.63;;;16.67;100.00
78845;BME280;68195;50.854;2.860;2023-07-31T01:18:24;101074.19;;;16.98;100.00
78845;BME280;68195;50.854;2.860;2023-07-31T01:20:55;101063.41;;;16.88;100.00
78845;BME280;68195;50.854;2.860;2023-07-31T01:26:12;101038.66;;;16.65;100.00
78845;BME280;68195;50.854;2.860;2023-07-31T01:28:47;101077.22;;;17.05;100.00
78845;BME280;68195;50.854;2.860;2023-07-31T01:31:20;101044.44;;;16.83;100.00
78845;BME280;68195;50.854;2.860;2023-07-31T01:33:46;101040.66;;;16.87;100.00
78845;BME280;68195;50.854;2.860;2023-07-31T01:36:12;101069.72;;;16.98;100.00
78845;BME280;68195;50.854;2.860;2023-07-31T01:38:40;101016.56;;;16.79;100.00
78845;BME280;68195;50.854;2.860;2023-07-31T01:41:11;101004.78;;;16.72;100.00
78845;BME280;68195;50.854;2.860;2023-07-31T01:43:39;101004.16;;;16.68;100.00
78845;BME280;68195;50.854;2.860;2023-07-31T01:46:04;100986.13;;;16.62;100.00
78845;BME280;68195;50.854;2.860;2023-07-31T01:48:36;101005.47;;;16.87;100.00
78845;BME280;68195;50.854;2.860;2023-07-31T01:51:02;100972.00;;;16.63;100.00
78845;BME280;68195;50.854;2.860;2023-07-31T01:53:29;101020.78;;;16.94;100.00
78845;BME280;68195;50.854;2.860;2023-07-31T01:55:56;101009.50;;;16.92;100.00
78845;BME280;68195;50.854;2.860;2023-07-31T01:58:24;100969.78;;;16.70;100.00
78845;BME280;68195;50.854;2.860;2023-07-31T02:00:49;100920.16;;;16.51;100.00
78845;BME280;68195;50.854;2.860;2023-07-31T02:03:17;100874.19;;;16.18;100.00
78845;BME280;68195;50.854;2.860;2023-07-31T02:05:46;101017.59;;;17.02;100.00
78845;BME280;68195;50.854;2.860;2023-07-31T02:08:15;101022.59;;;17.18;100.00
78845;BME280;68195;50.854;2.860;2023-07-31T02:10:41;100975.28;;;16.91;100.00
78845;BME280;68195;50.854;2.860;2023-07-31T02:13:09;101012.09;;;17.05;100.00
78845;BME280;68195;50.854;2.860;2023-07-31T02:15:36;100985.53;;;16.95;100.00
78845;BME280;68195;50.854;2.860;2023-07-31T02:18:02;100994.09;;;17.10;100.00
78845;BME280;68195;50.854;2.860;2023-07-31T02:20:35;100886.41;;;16.43;100.00
78845;BME280;68195;50.854;2.860;2023-07-31T02:23:03;100949.78;;;16.78;100.00
78845;BME280;68195;50.854;2.860;2023-07-31T02:25:33;100885.88;;;16.51;100.00
78845;BME280;68195;50.854;2.860;2023-07-31T02:28:01;101005.91;;;17.17;100.00
78845;BME280;68195;50.854;2.860;2023-07-31T02:30:29;100982.66;;;16.98;100.00
78845;BME280;68195;50.854;2.860;2023-07-31T02:32:54;100802.69;;;15.98;100.00
78845;BME280;68195;50.854;2.860;2023-07-31T02:35:19;100923.34;;;16.67;100.00
78845;BME280;68195;50.854;2.860;2023-07-31T02:37:45;100961.84;;;17.07;100.00
78845;BME280;68195;50.854;2.860;2023-07-31T02:40:13;100918.25;;;16.77;100.00
78845;BME280;68195;50.854;2.860;2023-07-31T02:42:40;100947.00;;;16.93;100.00
78845;BME280;68195;50.854;2.860;2023-07-31T02:45:06;100914.25;;;16.71;100.00
78845;BME280;68195;50.854;2.860;2023-07-31T02:47:34;100904.78;;;16.69;100.00
78845;BME280;68195;50.854;2.860;2023-07-31T02:50:01;100890.25;;;16.63;100.00
78845;BME280;68195;50.854;2.860;2023-07-31T02:52:26;100873.19;;;16.56;100.00
78845;BME280;68195;50.854;2.860;2023-07-31T02:54:52;100897.69;;;16.69;100.00
78845;BME280;68195;50.854;2.860;2023-07-31T02:57:17;100890.41;;;16.73;100.00
78845;BME280;68195;50.854;2.860;2023-07-31T02:59:42;100861.91;;;16.54;100.00
78845;BME280;68195;50.854;2.860;2023-07-31T03:02:08;100906.00;;;16.76;100.00
78845;BME280;68195;50.854;2.860;2023-07-31T03:04:33;100846.53;;;16.48;100.00
78845;BME280;68195;50.854;2.860;2023-07-31T03:07:01;100895.34;;;16.77;100.00
78845;BME280;68195;50.854;2.860;2023-07-31T03:09:26;100897.47;;;16.85;100.00
78845;BME280;68195;50.854;2.860;2023-07-31T03:11:52;100780.09;;;16.07;100.00
78845;BME280;68195;50.854;2.860;2023-07-31T03:14:23;100864.34;;;16.57;100.00
78845;BME280;68195;50.854;2.860;2023-07-31T03:16:48;100937.09;;;16.96;100.00
78845;BME280;68195;50.854;2.860;2023-07-31T03:19:14;100818.41;;;16.24;100.00
78845;BME280;68195;50.854;2.860;2023-07-31T03:21:45;100866.00;;;16.58;100.00
78845;BME280;68195;50.854;2.860;2023-07-31T03:24:12;100787.72;;;16.23;100.00
78845;BME280;68195;50.854;2.860;2023-07-31T03:26:38;100838.88;;;16.45;100.00
78845;BME280;68195;50.854;2.860;2023-07-31T03:29:08;100832.63;;;16.46;100.00
78845;BME280;68195;50.854;2.860;2023-07-31T03:31:34;100898.53;;;16.83;100.00
78845;BME280;68195;50.854;2.860;2023-07-31T03:33:59;100867.47;;;16.62;100.00
78845;BME280;68195;50.854;2.860;2023-07-31T03:36:25;100903.03;;;16.93;100.00
78845;BME280;68195;50.854;2.860;2023-07-31T03:38:51;100833.53;;;16.33;100.00
78845;BME280;68195;50.854;2.860;2023-07-31T03:41:22;100803.53;;;16.23;100.00
78845;BME280;68195;50.854;2.860;2023-07-31T03:43:49;100866.34;;;16.53;100.00
78845;BME280;68195;50.854;2.860;2023-07-31T03:46:16;100865.81;;;16.61;100.00
78845;BME280;68195;50.854;2.860;2023-07-31T03:48:46;100845.59;;;16.49;100.00
78845;BME280;68195;50.854;2.860;2023-07-31T03:51:17;100741.19;;;15.87;100.00
78845;BME280;68195;50.854;2.860;2023-07-31T03:53:43;100899.88;;;16.88;100.00
78845;BME280;68195;50.854;2.860;2023-07-31T03:56:09;100862.97;;;16.75;100.00
78845;BME280;68195;50.854;2.860;2023-07-31T03:58:36;100811.66;;;16.44;100.00
78845;BME280;68195;50.854;2.860;2023-07-31T04:01:03;100832.91;;;16.54;100.00
78845;BME280;68195;50.854;2.860;2023-07-31T04:03:31;100889.22;;;16.90;100.00
78845;BME280;68195;50.854;2.860;2023-07-31T04:05:58;100838.63;;;16.72;100.00
78845;BME280;68195;50.854;2.860;2023-07-31T04:08:26;100881.69;;;16.96;100.00
78845;BME280;68195;50.854;2.860;2023-07-31T04:10:54;100837.63;;;16.61;100.00
78845;BME280;68195;50.854;2.860;2023-07-31T04:13:22;100847.09;;;16.64;100.00
78845;BME280;68195;50.854;2.860;2023-07-31T04:15:54;100826.84;;;16.65;100.00
78845;BME280;68195;50.854;2.860;2023-07-31T04:18:24;100836.84;;;16.72;100.00
78845;BME280;68195;50.854;2.860;2023-07-31T04:20:51;100845.06;;;16.80;100.00
78845;BME280;68195;50.854;2.860;2023-07-31T04:23:16;100858.84;;;16.84;100.00
78845;BME280;68195;50.854;2.860;2023-07-31T04:25:44;100691.13;;;15.87;100.00
78845;BME280;68195;50.854;2.860;2023-07-31T04:28:09;100792.69;;;16.39;100.00
78845;BME280;68195;50.854;2.860;2023-07-31T04:30:37;100815.19;;;16.56;100.00
78845;BME280;68195;50.854;2.860;2023-07-31T04:33:05;100848.72;;;16.78;100.00
78845;BME280;68195;50.854;2.860;2023-07-31T04:35:30;100774.16;;;16.40;100.00
78845;BME280;68195;50.854;2.860;2023-07-31T04:38:00;100782.16;;;16.39;100.00
78845;BME280;68195;50.854;2.860;2023-07-31T04:40:28;100882.75;;;16.94;100.00
78845;BME280;68195;50.854;2.860;2023-07-31T04:42:53;100838.81;;;16.81;100.00
78845;BME280;68195;50.854;2.860;2023-07-31T04:45:18;100788.81;;;16.56;100.00
78845;BME280;68195;50.854;2.860;2023-07-31T04:47:44;100858.50;;;16.89;100.00
78845;BME280;68195;50.854;2.860;2023-07-31T04:50:09;100731.28;;;16.14;100.00
78845;BME280;68195;50.854;2.860;2023-07-31T04:52:35;100854.94;;;17.01;100.00
78845;BME280;68195;50.854;2.860;2023-07-31T04:55:03;100693.22;;;15.94;100.00
78845;BME280;68195;50.854;2.860;2023-07-31T04:57:28;100805.53;;;16.68;100.00
78845;BME280;68195;50.854;2.860;2023-07-31T04:59:56;100797.63;;;16.68;100.00
78845;BME280;68195;50.854;2.860;2023-07-31T05:02:21;100767.69;;;16.45;100.00
78845;BME280;68195;50.854;2.860;2023-07-31T05:04:47;100827.97;;;16.73;100.00
78845;BME280;68195;50.854;2.860;2023-07-31T05:07:12;100779.41;;;16.40;100.00
78845;BME280;68195;50.854;2.860;2023-07-31T05:09:40;100753.84;;;16.30;100.00
78845;BME280;68195;50.854;2.860;2023-07-31T05:12:06;100755.84;;;16.26;100.00
78845;BME280;68195;50.854;2.860;2023-07-31T05:14:31;100739.22;;;16.26;100.00
78845;BME280;68195;50.854;2.860;2023-07-31T05:16:57;100740.53;;;16.20;100.00
78845;BME280;68195;50.854;2.860;2023-07-31T05:19:22;100779.22;;;16.44;100.00
78845;BME280;68195;50.854;2.860;2023-07-31T05:21:48;100807.44;;;16.66;100.00
78845;BME280;68195;50.854;2.860;2023-07-31T05:24:13;100833.91;;;16.88;100.00
78845;BME280;68195;50.854;2.860;2023-07-31T05:26:38;100855.41;;;16.95;100.00
78845;BME280;68195;50.854;2.860;2023-07-31T05:29:11;100810.47;;;16.72;100.00
78845;BME280;68195;50.854;2.860;2023-07-31T05:31:36;100788.97;;;16.54;100.00
78845;BME280;68195;50.854;2.860;2023-07-31T05:34:03;100793.00;;;16.58;100.00
78845;BME280;68195;50.854;2.860;2023-07-31T05:36:28;100796.66;;;16.69;100.00
78845;BME280;68195;50.854;2.860;2023-07-31T05:38:54;100829.88;;;16.95;100.00
78845;BME280;68195;50.854;2.860;2023-07-31T05:41:19;100830.00;;;16.94;100.00
78845;BME280;68195;50.854;2.860;2023-07-31T05:43:47;100762.34;;;16.57;100.00
78845;BME280;68195;50.854;2.860;2023-07-31T05:46:12;100686.81;;;16.10;100.00
78845;BME280;68195;50.854;2.860;2023-07-31T05:48:40;100708.56;;;16.25;100.00
78845;BME280;68195;50.854;2.860;2023-07-31T05:51:06;100681.75;;;16.07;100.00
78845;BME280;68195;50.854;2.860;2023-07-31T05:53:34;100810.19;;;16.88;100.00
78845;BME280;68195;50.854;2.860;2023-07-31T05:56:01;100774.09;;;16.65;100.00
78845;BME280;68195;50.854;2.860;2023-07-31T05:58:26;100785.31;;;16.79;100.00
78845;BME280;68195;50.854;2.860;2023-07-31T06:00:52;100766.94;;;16.78;100.00
78845;BME280;68195;50.854;2.860;2023-07-31T06:03:17;100776.13;;;16.85;100.00
78845;BME280;68195;50.854;2.860;2023-07-31T06:05:45;100803.50;;;16.95;100.00
78845;BME280;68195;50.854;2.860;2023-07-31T06:08:10;100669.84;;;16.14;100.00
78845;BME280;68195;50.854;2.860;2023-07-31T06:10:38;100734.19;;;16.58;100.00
78845;BME280;68195;50.854;2.860;2023-07-31T06:13:03;100726.88;;;16.50;100.00
78845;BME280;68195;50.854;2.860;2023-07-31T06:15:29;100697.88;;;16.26;100.00
78845;BME280;68195;50.854;2.860;2023-07-31T06:17:54;100726.38;;;16.56;100.00
78845;BME280;68195;50.854;2.860;2023-07-31T06:20:20;100661.94;;;16.14;100.00
78845;BME280;68195;50.854;2.860;2023-07-31T06:22:47;100734.19;;;16.58;100.00
78845;BME280;68195;50.854;2.860;2023-07-31T06:25:15;100678.19;;;16.08;100.00
78845;BME280;68195;50.854;2.860;2023-07-31T06:27:43;100767.75;;;16.67;100.00
78845;BME280;68195;50.854;2.860;2023-07-31T06:30:11;100806.25;;;17.05;100.00
78845;BME280;68195;50.854;2.860;2023-07-31T06:32:36;100744.88;;;16.68;100.00
78845;BME280;68195;50.854;2.860;2023-07-31T06:35:02;100781.50;;;16.84;100.00
78845;BME280;68195;50.854;2.860;2023-07-31T06:37:30;100757.47;;;16.75;100.00
78845;BME280;68195;50.854;2.860;2023-07-31T06:39:55;100770.97;;;16.84;100.00
78845;BME280;68195;50.854;2.860;2023-07-31T06:42:21;100776.47;;;16.80;100.00
78845;BME280;68195;50.854;2.860;2023-07-31T06:44:49;100819.63;;;17.15;100.00
78845;BME280;68195;50.854;2.860;2023-07-31T06:47:14;100720.63;;;16.51;100.00
78845;BME280;68195;50.854;2.860;2023-07-31T06:49:42;100811.78;;;17.02;100.00
78845;BME280;68195;50.854;2.860;2023-07-31T06:52:07;100806.97;;;16.96;100.00
78845;BME280;68195;50.854;2.860;2023-07-31T06:54:35;100811.63;;;16.92;100.00
78845;BME280;68195;50.854;2.860;2023-07-31T06:57:03;100781.63;;;16.82;100.00
78845;BME280;68195;50.854;2.860;2023-07-31T06:59:29;100760.56;;;16.69;100.00
78845;BME280;68195;50.854;2.860;2023-07-31T07:01:54;100735.88;;;16.59;100.00
78845;BME280;68195;50.854;2.860;2023-07-31T07:04:20;100786.53;;;16.87;100.00
78845;BME280;68195;50.854;2.860;2023-07-31T07:06:45;100745.56;;;16.58;100.00
78845;BME280;68195;50.854;2.860;2023-07-31T07:09:13;100822.81;;;17.07;100.00
78845;BME280;68195;50.854;2.860;2023-07-31T07:11:41;100730.53;;;16.48;100.00
78845;BME280;68195;50.854;2.860;2023-07-31T07:14:09;100728.25;;;16.43;100.00
78845;BME280;68195;50.854;2.860;2023-07-31T07:16:37;100766.78;;;16.57;100.00
78845;BME280;68195;50.854;2.860;2023-07-31T07:19:03;100740.16;;;16.49;100.00
78845;BME280;68195;50.854;2.860;2023-07-31T07:21:30;100740.03;;;16.50;100.00
78845;BME280;68195;50.854;2.860;2023-07-31T07:23:56;100742.59;;;16.63;100.00
78845;BME280;68195;50.854;2.860;2023-07-31T07:26:23;100795.19;;;16.89;100.00
78845;BME280;68195;50.854;2.860;2023-07-31T07:28:49;100833.84;;;17.12;100.00
78845;BME280;68195;50.854;2.860;2023-07-31T07:31:14;100710.13;;;16.27;100.00
78845;BME280;68195;50.854;2.860;2023-07-31T07:33:42;100836.13;;;17.17;100.00
78845;BME280;68195;50.854;2.860;2023-07-31T07:36:08;100776.66;;;16.77;100.00
78845;BME280;68195;50.854;2.860;2023-07-31T07:38:37;100731.06;;;16.53;100.00
78845;BME280;68195;50.854;2.860;2023-07-31T07:41:06;100758.19;;;16.77;100.00
78845;BME280;68195;50.854;2.860;2023-07-31T07:43:31;100794.25;;;17.01;100.00
78845;BME280;68195;50.854;2.860;2023-07-31T07:45:59;100761.13;;;16.86;100.00
78845;BME280;68195;50.854;2.860;2023-07-31T07:48:27;100783.72;;;17.01;100.00
78845;BME280;68195;50.854;2.860;2023-07-31T07:50:52;100834.63;;;17.26;100.00
78845;BME280;68195;50.854;2.860;2023-07-31T07:53:22;100741.44;;;16.78;100.00
78845;BME280;68195;50.854;2.860;2023-07-31T07:55:47;100759.47;;;16.96;100.00
78845;BME280;68195;50.854;2.860;2023-07-31T07:58:13;100717.81;;;16.77;100.00
78845;BME280;68195;50.854;2.860;2023-07-31T08:00:41;100711.91;;;16.73;100.00
78845;BME280;68195;50.854;2.860;2023-07-31T08:03:06;100758.41;;;16.98;100.00
78845;BME280;68195;50.854;2.860;2023-07-31T08:05:34;100819.28;;;17.42;100.00
78845;BME280;68195;50.854;2.860;2023-07-31T08:07:59;100789.38;;;17.19;100.00
78845;BME280;68195;50.854;2.860;2023-07-31T08:10:27;100681.69;;;16.55;100.00
78845;BME280;68195;50.854;2.860;2023-07-31T08:12:53;100748.22;;;17.05;100.00
78845;BME280;68195;50.854;2.860;2023-07-31T08:15:18;100719.75;;;16.86;100.00
78845;BME280;68195;50.854;2.860;2023-07-31T08:17:47;100642.25;;;16.42;100.00
78845;BME280;68195;50.854;2.860;2023-07-31T08:20:12;100789.88;;;17.35;100.00
78845;BME280;68195;50.854;2.860;2023-07-31T08:22:38;100797.06;;;17.45;100.00
78845;BME280;68195;50.854;2.860;2023-07-31T08:25:03;100648.09;;;16.46;100.00
78845;BME280;68195;50.854;2.860;2023-07-31T08:27:32;100717.38;;;16.94;100.00
78845;BME280;68195;50.854;2.860;2023-07-31T08:29:57;100781.34;;;17.32;100.00
78845;BME280;68195;50.854;2.860;2023-07-31T08:32:23;100763.13;;;17.29;100.00
78845;BME280;68195;50.854;2.860;2023-07-31T08:34:50;100757.38;;;17.24;100.00
78845;BME280;68195;50.854;2.860;2023-07-31T08:37:18;100703.59;;;16.91;100.00
78845;BME280;68195;50.854;2.860;2023-07-31T08:39:46;100693.00;;;16.79;100.00
78845;BME280;68195;50.854;2.860;2023-07-31T08:44:41;100799.84;;;17.54;100.00
78845;BME280;68195;50.854;2.860;2023-07-31T08:47:08;100793.38;;;17.58;100.00
78845;BME280;68195;50.854;2.860;2023-07-31T08:49:35;100795.03;;;17.59;100.00
78845;BME280;68195;50.854;2.860;2023-07-31T08:52:06;100792.16;;;17.62;100.00
78845;BME280;68195;50.854;2.860;2023-07-31T08:54:31;100767.19;;;17.44;100.00
78845;BME280;68195;50.854;2.860;2023-07-31T08:57:01;100807.03;;;17.63;100.00
78845;BME280;68195;50.854;2.860;2023-07-31T08:59:31;100762.16;;;17.41;100.00
78845;BME280;68195;50.854;2.860;2023-07-31T09:02:03;100794.91;;;17.61;100.00
78845;BME280;68195;50.854;2.860;2023-07-31T09:04:32;100769.09;;;17.42;100.00
78845;BME280;68195;50.854;2.860;2023-07-31T09:07:02;100787.34;;;17.68;100.00
78845;BME280;68195;50.854;2.860;2023-07-31T09:09:30;100763.59;;;17.45;100.00
78845;BME280;68195;50.854;2.860;2023-07-31T09:11:57;100803.53;;;17.74;100.00
78845;BME280;68195;50.854;2.860;2023-07-31T09:14:25;100774.16;;;17.56;100.00
78845;BME280;68195;50.854;2.860;2023-07-31T09:16:58;100772.94;;;17.49;100.00
78845;BME280;68195;50.854;2.860;2023-07-31T09:19:32;100814.47;;;17.81;100.00
78845;BME280;68195;50.854;2.860;2023-07-31T09:22:03;100777.03;;;17.65;100.00
78845;BME280;68195;50.854;2.860;2023-07-31T09:24:29;100802.34;;;17.78;100.00
78845;BME280;68195;50.854;2.860;2023-07-31T09:26:56;100796.50;;;17.86;100.00
78845;BME280;68195;50.854;2.860;2023-07-31T09:29:22;100793.81;;;17.75;100.00
78845;BME280;68195;50.854;2.860;2023-07-31T09:31:48;100802.00;;;17.83;100.00
78845;BME280;68195;50.854;2.860;2023-07-31T09:34:13;100775.34;;;17.63;100.00
78845;BME280;68195;50.854;2.860;2023-07-31T09:39:09;100751.59;;;17.52;100.00
78845;BME280;68195;50.854;2.860;2023-07-31T09:41:39;100803.44;;;17.87;100.00
78845;BME280;68195;50.854;2.860;2023-07-31T09:44:06;100807.06;;;17.86;100.00
78845;BME280;68195;50.854;2.860;2023-07-31T09:46:35;100750.25;;;17.47;100.00
78845;BME280;68195;50.854;2.860;2023-07-31T09:49:13;100769.56;;;17.81;100.00
78845;BME280;68195;50.854;2.860;2023-07-31T09:51:42;100750.72;;;17.74;100.00
78845;BME280;68195;50.854;2.860;2023-07-31T09:54:17;100722.03;;;17.70;100.00
78845;BME280;68195;50.854;2.860;2023-07-31T09:56:46;100748.53;;;17.79;100.00
78845;BME280;68195;50.854;2.860;2023-07-31T09:59:18;100772.09;;;17.94;100.00
78845;BME280;68195;50.854;2.860;2023-07-31T10:01:47;100756.13;;;17.95;100.00
78845;BME280;68195;50.854;2.860;2023-07-31T10:04:17;100780.53;;;18.20;100.00
78845;BME280;68195;50.854;2.860;2023-07-31T10:06:46;100751.63;;;18.07;100.00
78845;BME280;68195;50.854;2.860;2023-07-31T10:09:15;100779.56;;;18.32;100.00
78845;BME280;68195;50.854;2.860;2023-07-31T10:11:46;100777.25;;;18.39;100.00
78845;BME280;68195;50.854;2.860;2023-07-31T10:14:18;100734.22;;;18.04;100.00
78845;BME280;68195;50.854;2.860;2023-07-31T10:16:46;100758.13;;;18.14;100.00
78845;BME280;68195;50.854;2.860;2023-07-31T10:19:12;100767.94;;;18.23;100.00
78845;BME280;68195;50.854;2.860;2023-07-31T10:21:41;100680.94;;;17.77;100.00
78845;BME280;68195;50.854;2.860;2023-07-31T10:24:08;100670.38;;;17.77;100.00
78845;BME280;68195;50.854;2.860;2023-07-31T10:26:37;100759.31;;;18.42;100.00
78845;BME280;68195;50.854;2.860;2023-07-31T10:29:06;100776.22;;;18.51;100.00
78845;BME280;68195;50.854;2.860;2023-07-31T10:31:32;100706.91;;;18.15;100.00
78845;BME280;68195;50.854;2.860;2023-07-31T10:33:59;100727.78;;;18.30;100.00
78845;BME280;68195;50.854;2.860;2023-07-31T10:36:25;100760.09;;;18.54;100.00
78845;BME280;68195;50.854;2.860;2023-07-31T10:38:52;100646.75;;;17.87;100.00
78845;BME280;68195;50.854;2.860;2023-07-31T10:41:17;100718.84;;;18.31;100.00
78845;BME280;68195;50.854;2.860;2023-07-31T10:43:45;100764.38;;;18.67;100.00
78845;BME280;68195;50.854;2.860;2023-07-31T10:46:12;100691.31;;;18.12;100.00
78845;BME280;68195;50.854;2.860;2023-07-31T10:48:39;100760.50;;;18.71;100.00
78845;BME280;68195;50.854;2.860;2023-07-31T10:51:11;100726.69;;;18.53;100.00
78845;BME280;68195;50.854;2.860;2023-07-31T10:53:45;100721.72;;;18.60;100.00
78845;BME280;68195;50.854;2.860;2023-07-31T10:58:44;100709.22;;;18.62;100.00
78845;BME280;68195;50.854;2.860;2023-07-31T11:01:12;100695.28;;;18.60;100.00
78845;BME280;68195;50.854;2.860;2023-07-31T11:03:50;100727.63;;;18.84;100.00
78845;BME280;68195;50.854;2.860;2023-07-31T11:06:18;100721.09;;;18.89;100.00
78845;BME280;68195;50.854;2.860;2023-07-31T11:08:49;100728.38;;;18.96;100.00
78845;BME280;68195;50.854;2.860;2023-07-31T11:11:16;100720.88;;;19.01;100.00
78845;BME280;68195;50.854;2.860;2023-07-31T11:13:47;100696.75;;;18.95;100.00
78845;BME280;68195;50.854;2.860;2023-07-31T11:16:16;100672.75;;;18.87;100.00
78845;BME280;68195;50.854;2.860;2023-07-31T11:18:44;100721.63;;;19.13;100.00
78845;BME280;68195;50.854;2.860;2023-07-31T11:21:18;100730.53;;;19.12;100.00
78845;BME280;68195;50.854;2.860;2023-07-31T11:23:51;100712.59;;;19.16;100.00
78845;BME280;68195;50.854;2.860;2023-07-31T11:26:20;100673.75;;;18.95;100.00
78845;BME280;68195;50.854;2.860;2023-07-31T11:28:49;100698.50;;;19.15;100.00
78845;BME280;68195;50.854;2.860;2023-07-31T11:31:16;100688.84;;;19.04;100.00
78845;BME280;68195;50.854;2.860;2023-07-31T11:33:41;100658.16;;;18.92;100.00
78845;BME280;68195;50.854;2.860;2023-07-31T11:36:14;100681.09;;;19.13;100.00
78845;BME280;68195;50.854;2.860;2023-07-31T11:38:40;100580.94;;;18.47;100.00
78845;BME280;68195;50.854;2.860;2023-07-31T11:41:06;100589.41;;;18.50;100.00
78845;BME280;68195;50.854;2.860;2023-07-31T11:43:35;100581.09;;;18.55;100.00
78845;BME280;68195;50.854;2.860;2023-07-31T11:46:04;100663.94;;;19.07;100.00
78845;BME280;68195;50.854;2.860;2023-07-31T11:48:36;100672.72;;;19.17;100.00
78845;BME280;68195;50.854;2.860;2023-07-31T11:51:04;100616.88;;;18.80;100.00
78845;BME280;68195;50.854;2.860;2023-07-31T11:53:45;100663.69;;;19.20;100.00
78845;BME280;68195;50.854;2.860;2023-07-31T11:56:20;100654.88;;;19.10;100.00
78845;BME280;68195;50.854;2.860;2023-07-31T11:58:57;100632.75;;;18.80;100.00
78845;BME280;68195;50.854;2.860;2023-07-31T12:01:23;100545.59;;;18.27;100.00
78845;BME280;68195;50.854;2.860;2023-07-31T12:03:50;100573.66;;;18.39;100.00
78845;BME280;68195;50.854;2.860;2023-07-31T12:06:18;100671.63;;;18.79;100.00
78845;BME280;68195;50.854;2.860;2023-07-31T12:08:48;100591.13;;;18.30;100.00
78845;BME280;68195;50.854;2.860;2023-07-31T12:11:16;100643.34;;;18.59;100.00
78845;BME280;68195;50.854;2.860;2023-07-31T12:13:43;100462.38;;;17.48;100.00
78845;BME280;68195;50.854;2.860;2023-07-31T12:16:08;100591.22;;;18.19;100.00
78845;BME280;68195;50.854;2.860;2023-07-31T12:18:37;100619.81;;;18.35;100.00
78845;BME280;68195;50.854;2.860;2023-07-31T12:21:07;100677.78;;;18.69;100.00
78845;BME280;68195;50.854;2.860;2023-07-31T12:23:35;100511.38;;;17.62;100.00
78845;BME280;68195;50.854;2.860;2023-07-31T12:26:05;100690.31;;;18.67;100.00
78845;BME280;68195;50.854;2.860;2023-07-31T12:28:55;100694.75;;;18.66;100.00
78845;BME280;68195;50.854;2.860;2023-07-31T12:31:22;100661.50;;;18.42;100.00
78845;BME280;68195;50.854;2.860;2023-07-31T12:33:54;100689.13;;;18.59;100.00
78845;BME280;68195;50.854;2.860;2023-07-31T12:36:22;100683.47;;;18.64;100.00
78845;BME280;68195;50.854;2.860;2023-07-31T12:38:49;100627.56;;;18.27;100.00
78845;BME280;68195;50.854;2.860;2023-07-31T12:41:15;100637.38;;;18.36;100.00
78845;BME280;68195;50.854;2.860;2023-07-31T12:43:42;100685.53;;;18.60;100.00
78845;BME280;68195;50.854;2.860;2023-07-31T12:46:08;100559.72;;;17.74;100.00
78845;BME280;68195;50.854;2.860;2023-07-31T12:48:33;100636.69;;;18.22;100.00
78845;BME280;68195;50.854;2.860;2023-07-31T12:50:59;100686.88;;;18.55;100.00
78845;BME280;68195;50.854;2.860;2023-07-31T12:53:25;100557.78;;;17.76;100.00